Terminal Aerodrome Forecast
Issued by NWS

Home | Current Version | Previous Version | Text Only | Print | Product List | Glossary On
Versions: 1 2 3 4 5 6 7 8 9 10 11 12 13 14 15 16
000
FTUS45 KTFX 241700
TAFBZN
TAF
KBZN 241720Z 2418/2518 25006KT P6SM SCT050 OVC070
     FM242000 22015G25KT P6SM VCSH SCT035 OVC050
     FM250100 23011KT P6SM SCT050 BKN090
     FM250600 15005KT P6SM BKN150=

USA.gov is the U.S. government's official web portal to all federal, state and local government web resources and services.